createdAt,value
2018-06-15T00:02:14.363Z,13.74
2018-06-15T00:04:46.469Z,13.77
2018-06-15T00:07:18.528Z,13.77
2018-06-15T00:09:50.603Z,13.75
2018-06-15T00:12:22.734Z,13.71
2018-06-15T00:14:55.032Z,13.68
2018-06-15T00:17:27.086Z,13.64
2018-06-15T00:19:59.160Z,13.55
2018-06-15T00:22:31.236Z,13.61
2018-06-15T00:25:03.311Z,13.63
2018-06-15T00:27:35.483Z,13.73
2018-06-15T00:30:08.299Z,13.73
2018-06-15T00:32:40.385Z,13.73
2018-06-15T00:35:12.484Z,13.81
2018-06-15T00:37:44.648Z,13.85
2018-06-15T00:40:16.760Z,13.92
2018-06-15T00:42:48.807Z,13.85
2018-06-15T00:45:20.866Z,13.83
2018-06-15T00:47:52.910Z,13.77
2018-06-15T00:50:24.978Z,13.83
2018-06-15T00:52:57.076Z,13.98
2018-06-15T00:55:29.203Z,13.97
2018-06-15T00:58:01.271Z,13.88
2018-06-15T01:00:33.387Z,13.91
2018-06-15T01:03:05.441Z,13.95
2018-06-15T01:05:37.527Z,13.91
2018-06-15T01:08:09.692Z,13.78
2018-06-15T01:10:41.848Z,13.69
2018-06-15T01:13:13.970Z,13.57
2018-06-15T01:15:46.142Z,13.48
2018-06-15T01:18:18.236Z,13.35
2018-06-15T01:20:50.328Z,13.23
2018-06-15T01:23:22.456Z,13.03
2018-06-15T01:25:54.576Z,12.82
2018-06-15T01:28:26.677Z,12.61
2018-06-15T01:30:58.987Z,12.56
2018-06-15T01:33:31.059Z,12.37
2018-06-15T01:36:03.169Z,12.34
2018-06-15T01:38:35.245Z,12.26
2018-06-15T01:41:07.317Z,12.15
2018-06-15T01:43:39.392Z,12.11
2018-06-15T01:46:11.473Z,12.09
2018-06-15T01:48:43.596Z,11.95
2018-06-15T01:51:15.705Z,11.79
2018-06-15T01:53:47.802Z,11.81
2018-06-15T01:56:19.871Z,11.73
2018-06-15T01:58:52.068Z,11.54
2018-06-15T02:01:24.384Z,11.44
2018-06-15T02:03:56.312Z,11.29
2018-06-15T02:06:28.372Z,11.25
2018-06-15T02:09:00.439Z,11.24
2018-06-15T02:11:32.504Z,11.05
2018-06-15T02:14:04.872Z,10.89
2018-06-15T02:16:37.009Z,10.96
2018-06-15T02:19:09.075Z,11.05
2018-06-15T02:21:41.200Z,10.97
2018-06-15T02:24:13.300Z,10.80
2018-06-15T02:26:45.427Z,10.81
2018-06-15T02:29:17.975Z,10.80
2018-06-15T02:31:50.100Z,10.74
2018-06-15T02:34:22.224Z,10.86
2018-06-15T02:36:54.314Z,10.89
2018-06-15T02:39:26.425Z,10.88
2018-06-15T02:42:05.159Z,10.97
2018-06-15T02:44:37.215Z,10.94
2018-06-15T02:47:09.307Z,11.06
2018-06-15T02:49:41.350Z,11.10
2018-06-15T02:52:13.438Z,11.11
2018-06-15T02:54:45.518Z,11.24
2018-06-15T02:57:17.658Z,11.36
2018-06-15T02:59:49.719Z,11.46
2018-06-15T03:02:21.799Z,11.58
2018-06-15T03:04:53.844Z,11.63
2018-06-15T03:07:27.039Z,11.79
2018-06-15T03:09:59.123Z,11.91
2018-06-15T03:12:31.580Z,12.04
2018-06-15T03:15:03.674Z,12.02
2018-06-15T03:17:36.539Z,12.09
2018-06-15T03:20:08.659Z,12.14
2018-06-15T03:22:40.808Z,12.20
2018-06-15T03:25:13.056Z,12.23
2018-06-15T03:27:45.041Z,12.28
2018-06-15T03:30:17.169Z,12.32
2018-06-15T03:32:49.262Z,12.35
2018-06-15T03:35:21.352Z,12.42
2018-06-15T03:37:53.406Z,12.55
2018-06-15T03:40:25.449Z,12.55
2018-06-15T03:42:57.550Z,12.65
2018-06-15T03:45:29.640Z,12.67
2018-06-15T03:48:01.787Z,12.71
2018-06-15T03:50:33.896Z,12.82
2018-06-15T03:53:06.038Z,12.92
2018-06-15T03:55:38.109Z,13.01
2018-06-15T03:58:10.268Z,13.12
2018-06-15T04:00:42.424Z,13.20
2018-06-15T04:03:14.470Z,13.21
2018-06-15T04:05:46.568Z,13.27
2018-06-15T04:08:19.015Z,13.29
2018-06-15T04:10:51.145Z,13.33
2018-06-15T04:13:23.255Z,13.44
2018-06-15T04:15:55.342Z,13.51
2018-06-15T04:18:27.488Z,13.52
2018-06-15T04:20:59.545Z,13.59
2018-06-15T04:23:31.662Z,13.66
2018-06-15T04:26:03.721Z,13.78
2018-06-15T04:28:35.795Z,13.97
2018-06-15T04:31:07.942Z,13.99
2018-06-15T04:33:39.997Z,13.97
2018-06-15T04:36:12.023Z,14.13
2018-06-15T04:38:44.133Z,14.02
2018-06-15T04:41:16.281Z,14.26
2018-06-15T04:43:48.373Z,14.27
2018-06-15T04:46:20.459Z,14.25
2018-06-15T04:48:52.580Z,14.37
2018-06-15T04:51:24.673Z,14.54
2018-06-15T04:53:56.910Z,14.55
2018-06-15T04:56:29.047Z,14.63
2018-06-15T04:59:01.079Z,14.72
2018-06-15T05:01:33.087Z,14.74
2018-06-15T05:04:05.357Z,14.84
2018-06-15T05:06:37.412Z,14.98
2018-06-15T05:09:10.499Z,15.16
2018-06-15T05:11:42.547Z,15.23
2018-06-15T05:14:15.752Z,15.21
2018-06-15T05:16:47.892Z,15.30
2018-06-15T05:19:19.996Z,15.23
2018-06-15T05:21:52.044Z,15.37
2018-06-15T05:24:24.166Z,15.40
2018-06-15T05:26:56.259Z,15.70
2018-06-15T05:29:28.538Z,15.79
2018-06-15T05:32:01.896Z,16.07
2018-06-15T05:34:33.963Z,16.17
2018-06-15T05:37:07.070Z,16.19
2018-06-15T05:39:39.148Z,16.32
2018-06-15T05:42:11.226Z,16.52
2018-06-15T05:44:43.888Z,16.79
2018-06-15T05:47:15.935Z,17.19
2018-06-15T05:49:48.059Z,17.26
2018-06-15T05:52:20.097Z,17.24
2018-06-15T05:54:52.152Z,17.23
2018-06-15T05:57:24.236Z,17.04
2018-06-15T05:59:56.411Z,17.56
2018-06-15T06:02:28.513Z,18.15
2018-06-15T06:05:00.606Z,18.50
2018-06-15T06:07:32.664Z,18.42
2018-06-15T06:10:04.863Z,18.58
2018-06-15T06:12:37.103Z,18.52
2018-06-15T06:15:09.184Z,19.26
2018-06-15T06:17:41.335Z,18.91
2018-06-15T06:20:13.411Z,18.91
2018-06-15T06:22:45.552Z,19.40
2018-06-15T06:25:17.663Z,19.83
2018-06-15T06:27:49.708Z,20.24
2018-06-15T06:30:21.801Z,20.20
2018-06-15T06:32:53.907Z,20.00
2018-06-15T06:35:26.057Z,19.55
2018-06-15T06:37:58.219Z,20.37
2018-06-15T06:40:30.287Z,20.74
2018-06-15T06:43:02.443Z,20.67
2018-06-15T06:45:34.530Z,20.81
2018-06-15T06:48:06.600Z,21.39
2018-06-15T06:50:38.734Z,21.36
2018-06-15T06:53:10.747Z,21.82
2018-06-15T06:55:42.875Z,22.54
2018-06-15T06:58:14.957Z,22.69
2018-06-15T07:00:47.058Z,21.81
2018-06-15T07:03:19.211Z,22.23
2018-06-15T07:05:51.468Z,22.23
2018-06-15T07:08:23.536Z,22.01
2018-06-15T07:10:55.580Z,21.97
2018-06-15T07:13:27.667Z,22.74
2018-06-15T07:15:59.712Z,23.69
2018-06-15T07:18:32.530Z,26.61
2018-06-15T07:21:04.645Z,27.21
2018-06-15T07:23:36.756Z,29.15
2018-06-15T07:26:08.805Z,29.46
2018-06-15T07:28:40.919Z,29.25
2018-06-15T07:31:12.996Z,27.96
2018-06-15T07:33:45.105Z,28.76
2018-06-15T07:36:17.165Z,28.14
2018-06-15T07:38:49.291Z,28.70
2018-06-15T07:41:21.420Z,29.28
2018-06-15T07:43:53.501Z,28.40
2018-06-15T07:46:25.632Z,29.21
2018-06-15T07:48:57.973Z,29.20
2018-06-15T07:51:30.143Z,30.05
2018-06-15T07:54:02.243Z,29.08
2018-06-15T07:56:34.381Z,29.64
2018-06-15T07:59:06.832Z,29.86
2018-06-15T08:01:38.908Z,29.91
2018-06-15T08:04:11.885Z,30.00
2018-06-15T08:06:44.028Z,30.14
2018-06-15T08:09:16.178Z,31.06
2018-06-15T08:11:48.279Z,30.72
2018-06-15T08:14:20.352Z,31.14
2018-06-15T08:16:52.455Z,31.42
2018-06-15T08:19:24.775Z,32.12
2018-06-15T08:21:56.940Z,32.07
2018-06-15T08:24:29.051Z,32.54
2018-06-15T08:27:01.128Z,31.40
2018-06-15T08:29:33.245Z,30.80
2018-06-15T08:32:05.398Z,30.24
2018-06-15T08:34:37.498Z,31.53
2018-06-15T08:37:09.564Z,30.22
2018-06-15T08:39:41.658Z,29.24
2018-06-15T08:42:13.758Z,27.56
2018-06-15T08:44:45.808Z,27.39
2018-06-15T08:47:17.868Z,29.54
2018-06-15T08:49:49.954Z,30.95
2018-06-15T08:52:22.029Z,31.47
2018-06-15T08:54:54.101Z,30.99
2018-06-15T08:57:26.163Z,30.97
2018-06-15T08:59:58.217Z,28.73
2018-06-15T09:02:30.276Z,27.63
2018-06-15T09:05:02.348Z,29.09
2018-06-15T09:07:34.431Z,29.12
2018-06-15T09:10:06.509Z,29.36
2018-06-15T09:12:38.595Z,30.26
2018-06-15T09:15:10.666Z,30.99
2018-06-15T09:17:42.795Z,31.55
2018-06-15T09:20:14.934Z,29.90
2018-06-15T09:22:47.026Z,29.09
2018-06-15T09:25:19.136Z,29.09
2018-06-15T09:27:51.167Z,28.04
2018-06-15T09:30:23.303Z,27.05
2018-06-15T09:32:55.363Z,26.35
2018-06-15T09:35:27.504Z,26.50
2018-06-15T09:37:59.545Z,27.24
2018-06-15T09:40:31.593Z,27.45
2018-06-15T09:43:03.675Z,27.93
2018-06-15T09:45:36.270Z,29.32
2018-06-15T09:48:08.337Z,30.68
2018-06-15T09:50:40.464Z,30.80
2018-06-15T09:53:12.523Z,31.90
2018-06-15T09:55:44.622Z,30.63
2018-06-15T09:58:16.708Z,31.47
2018-06-15T10:00:49.579Z,31.68
2018-06-15T10:03:21.687Z,32.37
2018-06-15T10:05:53.910Z,31.44
2018-06-15T10:08:25.998Z,31.90
2018-06-15T10:10:58.193Z,32.26
2018-06-15T10:13:30.316Z,31.38
2018-06-15T10:16:02.484Z,30.12
2018-06-15T10:18:34.512Z,27.76
2018-06-15T10:21:06.639Z,27.58
2018-06-15T10:23:38.701Z,26.72
2018-06-15T10:26:10.810Z,26.61
2018-06-15T10:28:42.903Z,28.89
2018-06-15T10:31:15.009Z,30.08
2018-06-15T10:33:47.075Z,29.31
2018-06-15T10:36:19.281Z,30.23
2018-06-15T10:38:51.451Z,29.39
2018-06-15T10:41:23.676Z,28.91
2018-06-15T10:43:55.725Z,27.07
2018-06-15T10:46:27.854Z,26.21
2018-06-15T10:48:59.894Z,27.61
2018-06-15T10:51:32.192Z,27.26
2018-06-15T10:54:04.267Z,27.86
2018-06-15T10:56:36.343Z,27.91
2018-06-15T10:59:08.455Z,28.24
2018-06-15T11:01:40.584Z,28.87
2018-06-15T11:04:12.660Z,28.76
2018-06-15T11:06:44.781Z,29.16
2018-06-15T11:09:16.863Z,29.12
2018-06-15T11:11:48.951Z,29.54
2018-06-15T11:14:21.038Z,27.09
2018-06-15T11:16:53.168Z,27.28
2018-06-15T11:19:25.208Z,27.42
2018-06-15T11:21:57.260Z,26.64
2018-06-15T11:24:29.283Z,27.73
2018-06-15T11:27:01.410Z,28.81
2018-06-15T11:29:33.510Z,27.54
2018-06-15T11:32:05.565Z,26.58
2018-06-15T11:34:37.619Z,26.96
2018-06-15T11:37:09.684Z,27.15
2018-06-15T11:39:41.752Z,26.85
2018-06-15T11:42:13.923Z,26.81
2018-06-15T11:44:46.039Z,26.89
2018-06-15T11:47:18.204Z,26.49
2018-06-15T11:49:50.280Z,25.67
2018-06-15T11:52:22.365Z,25.47
2018-06-15T11:54:54.844Z,26.85
2018-06-15T11:57:26.908Z,27.96
2018-06-15T11:59:58.937Z,27.28
2018-06-15T12:02:31.025Z,28.20
2018-06-15T12:05:03.167Z,29.44
2018-06-15T12:07:35.269Z,30.96
2018-06-15T12:10:07.357Z,31.95
2018-06-15T12:12:39.480Z,30.21
2018-06-15T12:15:11.525Z,31.53
2018-06-15T12:17:43.597Z,33.24
2018-06-15T12:20:15.651Z,33.59
2018-06-15T12:22:49.156Z,34.60
2018-06-15T12:25:23.256Z,31.75
2018-06-15T12:27:55.404Z,31.48
2018-06-15T12:30:27.516Z,30.76
2018-06-15T12:32:59.646Z,29.86
2018-06-15T12:35:32.703Z,29.48
2018-06-15T12:38:04.802Z,31.41
2018-06-15T12:40:36.881Z,31.66
2018-06-15T12:43:09.034Z,30.78
2018-06-15T12:45:41.123Z,30.16
2018-06-15T12:48:13.195Z,29.35
2018-06-15T12:50:45.314Z,29.04
2018-06-15T12:53:17.467Z,27.47
2018-06-15T12:55:49.996Z,28.42
2018-06-15T12:58:22.067Z,29.74
2018-06-15T13:00:54.162Z,29.33
2018-06-15T13:03:26.356Z,29.87
2018-06-15T13:05:58.716Z,30.20
2018-06-15T13:08:30.771Z,29.86
2018-06-15T13:11:02.901Z,30.03
2018-06-15T13:13:34.944Z,30.17
2018-06-15T13:16:07.022Z,29.43
2018-06-15T13:18:39.088Z,29.99
2018-06-15T13:21:11.171Z,30.56
2018-06-15T13:23:43.284Z,29.54
2018-06-15T13:26:15.436Z,27.94
2018-06-15T13:28:47.491Z,27.50
2018-06-15T13:31:19.582Z,28.41
2018-06-15T13:33:51.621Z,29.18
2018-06-15T13:36:24.166Z,31.59
2018-06-15T13:38:56.300Z,31.37
2018-06-15T13:41:29.458Z,32.37
2018-06-15T13:44:01.525Z,34.05
2018-06-15T13:46:33.706Z,35.56
2018-06-15T13:49:05.902Z,36.20
2018-06-15T13:51:38.083Z,34.51
2018-06-15T13:54:10.216Z,32.65
2018-06-15T13:56:42.338Z,31.10
2018-06-15T13:59:14.483Z,31.79
2018-06-15T14:01:46.925Z,31.84
2018-06-15T14:04:19.005Z,32.64
2018-06-15T14:06:51.135Z,32.17
2018-06-15T14:09:23.236Z,30.14
2018-06-15T14:11:55.365Z,29.55
2018-06-15T14:14:27.534Z,30.27
2018-06-15T14:16:59.700Z,31.47
2018-06-15T14:19:31.820Z,33.30
2018-06-15T14:22:03.904Z,33.49
2018-06-15T14:24:36.021Z,32.61
2018-06-15T14:27:08.224Z,32.21
2018-06-15T14:29:40.360Z,31.82
2018-06-15T14:32:12.493Z,32.12
2018-06-15T14:34:44.585Z,32.58
2018-06-15T14:37:16.690Z,32.05
2018-06-15T14:39:48.788Z,32.07
2018-06-15T14:42:20.938Z,31.60
2018-06-15T14:44:53.060Z,31.38
2018-06-15T14:47:25.215Z,31.01
2018-06-15T14:49:57.341Z,31.84
2018-06-15T14:52:29.509Z,29.65
2018-06-15T14:55:01.610Z,29.64
2018-06-15T14:57:33.738Z,29.41
2018-06-15T15:00:05.947Z,28.80
2018-06-15T15:02:38.026Z,28.04
2018-06-15T15:05:10.131Z,28.30
2018-06-15T15:07:42.198Z,28.66
2018-06-15T15:10:14.310Z,28.63
2018-06-15T15:12:46.383Z,28.36
2018-06-15T15:15:18.505Z,28.35
2018-06-15T15:17:50.546Z,27.34
2018-06-15T15:20:22.608Z,26.77
2018-06-15T15:22:54.671Z,26.84
2018-06-15T15:25:26.769Z,26.57
2018-06-15T15:27:58.861Z,25.58
2018-06-15T15:30:30.982Z,25.43
2018-06-15T15:33:03.047Z,26.82
2018-06-15T15:35:35.159Z,28.50
2018-06-15T15:38:07.282Z,30.23
2018-06-15T15:40:39.446Z,31.18
2018-06-15T15:43:11.559Z,29.90
2018-06-15T15:45:43.707Z,29.55
2018-06-15T15:48:15.822Z,30.05
2018-06-15T15:50:47.929Z,29.85
2018-06-15T15:53:20.030Z,30.51
2018-06-15T15:55:52.138Z,30.89
2018-06-15T15:58:24.179Z,30.02
2018-06-15T16:00:56.288Z,28.68
2018-06-15T16:03:28.404Z,28.23
2018-06-15T16:06:00.510Z,28.88
2018-06-15T16:08:32.586Z,29.79
2018-06-15T16:11:04.633Z,31.48
2018-06-15T16:13:36.696Z,31.39
2018-06-15T16:16:09.227Z,31.22
2018-06-15T16:18:41.317Z,29.97
2018-06-15T16:21:13.399Z,29.09
2018-06-15T16:23:45.550Z,28.54
2018-06-15T16:26:17.635Z,28.65
2018-06-15T16:28:49.712Z,29.15
2018-06-15T16:31:21.831Z,29.10
2018-06-15T16:33:54.168Z,29.37
2018-06-15T16:36:26.404Z,30.16
2018-06-15T16:38:58.467Z,30.37
2018-06-15T16:41:30.545Z,29.52
2018-06-15T16:44:02.603Z,29.40
2018-06-15T16:46:34.672Z,29.98
2018-06-15T16:49:06.765Z,29.46
2018-06-15T16:51:38.838Z,29.71
2018-06-15T16:54:10.927Z,29.74
2018-06-15T16:56:43.017Z,29.19
2018-06-15T16:59:15.148Z,28.60
2018-06-15T17:01:47.399Z,27.95
2018-06-15T17:04:19.488Z,27.29
2018-06-15T17:06:51.532Z,27.14
2018-06-15T17:09:23.632Z,26.61
2018-06-15T17:11:55.801Z,26.78
2018-06-15T17:14:27.892Z,26.68
2018-06-15T17:17:00.022Z,26.01
2018-06-15T17:19:32.088Z,25.64
2018-06-15T17:22:04.176Z,25.46
2018-06-15T17:24:36.271Z,25.53
2018-06-15T17:27:08.335Z,25.67
2018-06-15T17:29:40.629Z,25.42
2018-06-15T17:32:12.739Z,25.11
2018-06-15T17:34:45.662Z,25.13
2018-06-15T17:37:17.708Z,24.88
2018-06-15T17:39:49.765Z,24.79
2018-06-15T17:42:21.883Z,24.62
2018-06-15T17:44:53.959Z,24.71
2018-06-15T17:47:26.056Z,24.75
2018-06-15T17:49:58.116Z,24.68
2018-06-15T17:52:30.669Z,24.51
2018-06-15T17:55:02.765Z,24.16
2018-06-15T17:57:35.012Z,23.87
2018-06-15T18:00:07.094Z,23.80
2018-06-15T18:02:39.185Z,23.56
2018-06-15T18:05:11.342Z,23.54
2018-06-15T18:07:43.419Z,23.38
2018-06-15T18:10:15.495Z,23.37
2018-06-15T18:12:47.764Z,23.18
2018-06-15T18:15:19.857Z,23.08
2018-06-15T18:17:51.943Z,23.09
2018-06-15T18:20:24.007Z,23.04
2018-06-15T18:22:56.048Z,23.17
2018-06-15T18:25:28.123Z,22.93
2018-06-15T18:28:00.209Z,22.78
2018-06-15T18:30:32.296Z,22.59
2018-06-15T18:33:04.501Z,22.52
2018-06-15T18:35:36.650Z,22.38
2018-06-15T18:38:08.718Z,22.11
2018-06-15T18:40:40.856Z,22.04
2018-06-15T18:43:12.952Z,21.93
2018-06-15T18:45:45.030Z,21.85
2018-06-15T18:48:17.187Z,21.74
2018-06-15T18:50:49.307Z,21.55
2018-06-15T18:53:21.379Z,21.46
2018-06-15T18:55:53.442Z,21.41
2018-06-15T18:58:25.985Z,21.23
2018-06-15T19:00:58.042Z,21.10
2018-06-15T19:03:30.155Z,20.96
2018-06-15T19:06:02.368Z,20.82
2018-06-15T19:08:34.552Z,20.74
2018-06-15T19:11:06.607Z,20.50
2018-06-15T19:13:38.993Z,20.39
2018-06-15T19:16:11.216Z,20.34
2018-06-15T19:18:43.272Z,20.28
2018-06-15T19:22:39.930Z,20.09
2018-06-15T19:25:12.016Z,19.73
2018-06-15T19:27:44.055Z,19.53
2018-06-15T19:30:16.081Z,19.56
2018-06-15T19:32:48.184Z,19.38
2018-06-15T19:35:20.358Z,19.29
2018-06-15T19:37:52.457Z,19.12
2018-06-15T19:40:24.563Z,18.92
2018-06-15T19:42:56.678Z,18.71
2018-06-15T19:45:28.744Z,18.68
2018-06-15T19:48:00.816Z,18.63
2018-06-15T19:50:32.888Z,18.48
2018-06-15T19:53:04.990Z,18.47
2018-06-15T19:55:37.080Z,18.56
2018-06-15T19:58:09.153Z,18.42
2018-06-15T20:00:41.263Z,18.26
2018-06-15T20:03:13.340Z,18.18
2018-06-15T20:05:45.476Z,18.09
2018-06-15T20:08:17.533Z,18.07
2018-06-15T20:10:49.684Z,18.03
2018-06-15T20:13:21.739Z,17.99
2018-06-15T20:15:53.840Z,17.86
2018-06-15T20:18:25.912Z,17.69
2018-06-15T20:20:58.001Z,17.66
2018-06-15T20:23:30.065Z,17.50
2018-06-15T20:26:02.240Z,17.43
2018-06-15T20:28:34.331Z,17.28
2018-06-15T20:31:06.436Z,17.19
2018-06-15T20:33:38.549Z,17.25
2018-06-15T20:36:10.731Z,17.33
2018-06-15T20:38:42.785Z,17.28
2018-06-15T20:41:14.917Z,17.33
2018-06-15T20:43:47.026Z,17.34
2018-06-15T20:46:19.151Z,17.32
2018-06-15T20:48:51.294Z,17.13
2018-06-15T20:51:23.430Z,16.93
2018-06-15T20:53:55.538Z,16.82
2018-06-15T20:56:27.710Z,16.68
2018-06-15T20:58:59.787Z,16.65
2018-06-15T21:01:31.874Z,16.68
2018-06-15T21:04:04.089Z,16.81
2018-06-15T21:06:36.164Z,16.67
2018-06-15T21:09:09.135Z,16.55
2018-06-15T21:11:41.220Z,16.47
2018-06-15T21:14:13.294Z,16.36
2018-06-15T21:16:45.398Z,16.31
2018-06-15T21:19:17.492Z,16.23
2018-06-15T21:21:50.698Z,16.08
2018-06-15T21:24:22.796Z,16.21
2018-06-15T21:26:54.866Z,16.27
2018-06-15T21:29:26.968Z,16.22
2018-06-15T21:31:59.359Z,16.25
2018-06-15T21:34:31.463Z,16.03
2018-06-15T21:37:03.672Z,15.96
2018-06-15T21:39:35.733Z,15.95
2018-06-15T21:42:07.784Z,15.87
2018-06-15T21:44:39.872Z,15.72
2018-06-15T21:47:11.999Z,15.63
2018-06-15T21:49:44.100Z,15.60
2018-06-15T21:52:16.153Z,15.55
2018-06-15T21:54:48.245Z,15.50
2018-06-15T21:57:20.291Z,15.46
2018-06-15T21:59:52.383Z,15.41
2018-06-15T22:02:24.410Z,15.45
2018-06-15T22:04:56.559Z,15.45
2018-06-15T22:07:28.673Z,15.46
2018-06-15T22:10:00.817Z,15.40
2018-06-15T22:12:32.988Z,15.34
2018-06-15T22:15:05.102Z,15.31
2018-06-15T22:17:37.213Z,15.22
2018-06-15T22:20:09.295Z,15.17
2018-06-15T22:22:41.368Z,15.13
2018-06-15T22:25:13.457Z,15.08
2018-06-15T22:27:45.503Z,14.96
2018-06-15T22:30:17.572Z,14.89
2018-06-15T22:32:49.633Z,15.01
2018-06-15T22:35:21.711Z,14.94
2018-06-15T22:37:53.776Z,14.76
2018-06-15T22:40:25.890Z,14.66
2018-06-15T22:42:57.950Z,14.53
2018-06-15T22:45:30.013Z,14.47
2018-06-15T22:48:02.053Z,14.54
2018-06-15T22:50:34.169Z,14.68
2018-06-15T22:53:06.276Z,14.67
2018-06-15T22:55:38.451Z,14.64
2018-06-15T22:58:10.565Z,14.52
2018-06-15T23:00:42.645Z,14.51
2018-06-15T23:03:14.712Z,14.47
2018-06-15T23:05:46.799Z,14.41
2018-06-15T23:08:18.859Z,14.30
2018-06-15T23:10:50.880Z,14.16
2018-06-15T23:13:22.916Z,14.04
2018-06-15T23:15:55.010Z,14.11
2018-06-15T23:18:27.063Z,14.18
2018-06-15T23:20:59.145Z,14.17
2018-06-15T23:23:31.200Z,14.19
2018-06-15T23:26:03.322Z,14.08
2018-06-15T23:28:35.444Z,14.02
2018-06-15T23:31:07.781Z,13.82
2018-06-15T23:33:39.845Z,13.75
2018-06-15T23:36:13.040Z,13.66
2018-06-15T23:38:45.407Z,13.65
2018-06-15T23:41:17.459Z,13.59
2018-06-15T23:43:49.525Z,13.57
2018-06-15T23:46:21.617Z,13.63
2018-06-15T23:48:53.660Z,13.53
2018-06-15T23:51:25.747Z,13.68
2018-06-15T23:53:57.820Z,13.61
2018-06-15T23:56:29.892Z,13.43
2018-06-15T23:59:01.959Z,13.35
